sensor_id;sensor_type;location;lat;lon;timestamp;pressure;altitude;pressure_sealevel;temperature;humidity
79678;BME280;69145;45.544;10.214;2023-06-10T00:01:58;99671.63;;;22.35;72.40
79678;BME280;69145;45.544;10.214;2023-06-10T00:04:25;99670.81;;;22.34;72.52
79678;BME280;69145;45.544;10.214;2023-06-10T00:06:51;99665.00;;;22.32;72.49
79678;BME280;69145;45.544;10.214;2023-06-10T00:09:16;99664.47;;;22.30;72.41
79678;BME280;69145;45.544;10.214;2023-06-10T00:11:43;99670.00;;;22.34;72.43
79678;BME280;69145;45.544;10.214;2023-06-10T00:14:09;99665.00;;;22.32;72.32
79678;BME280;69145;45.544;10.214;2023-06-10T00:16:35;99670.81;;;22.34;72.44
79678;BME280;69145;45.544;10.214;2023-06-10T00:19:02;99667.38;;;22.34;72.45
79678;BME280;69145;45.544;10.214;2023-06-10T00:21:30;99658.16;;;22.31;72.52
79678;BME280;69145;45.544;10.214;2023-06-10T00:23:55;99663.69;;;22.30;72.48
79678;BME280;69145;45.544;10.214;2023-06-10T00:26:22;99666.56;;;22.33;72.49
79678;BME280;69145;45.544;10.214;2023-06-10T00:28:48;99662.09;;;22.34;72.52
79678;BME280;69145;45.544;10.214;2023-06-10T00:31:13;99663.72;;;22.35;72.47
79678;BME280;69145;45.544;10.214;2023-06-10T00:33:38;99661.31;;;22.33;72.52
79678;BME280;69145;45.544;10.214;2023-06-10T00:36:04;99662.09;;;22.34;72.57
79678;BME280;69145;45.544;10.214;2023-06-10T00:38:29;99664.75;;;22.34;72.48
79678;BME280;69145;45.544;10.214;2023-06-10T00:40:55;99662.09;;;22.34;72.51
79678;BME280;69145;45.544;10.214;2023-06-10T00:43:20;99656.03;;;22.33;72.52
79678;BME280;69145;45.544;10.214;2023-06-10T00:45:45;99663.19;;;22.33;72.64
79678;BME280;69145;45.544;10.214;2023-06-10T00:48:11;99652.09;;;22.31;72.68
79678;BME280;69145;45.544;10.214;2023-06-10T00:50:36;99661.31;;;22.33;72.70
79678;BME280;69145;45.544;10.214;2023-06-10T00:53:04;99658.66;;;22.33;72.73
79678;BME280;69145;45.544;10.214;2023-06-10T00:55:32;99656.03;;;22.33;72.70
79678;BME280;69145;45.544;10.214;2023-06-10T00:57:58;99665.28;;;22.31;72.85
79678;BME280;69145;45.544;10.214;2023-06-10T01:00:24;99662.09;;;22.34;72.96
79678;BME280;69145;45.544;10.214;2023-06-10T01:02:49;99663.19;;;22.33;73.13
79678;BME280;69145;45.544;10.214;2023-06-10T01:05:17;99660.53;;;22.33;73.04
79678;BME280;69145;45.544;10.214;2023-06-10T01:07:50;99660.00;;;22.31;73.01
79678;BME280;69145;45.544;10.214;2023-06-10T01:10:36;99654.19;;;22.34;73.06
79678;BME280;69145;45.544;10.214;2023-06-10T01:13:03;99646.81;;;22.31;73.16
79678;BME280;69145;45.544;10.214;2023-06-10T01:15:32;99644.47;;;22.29;73.19
79678;BME280;69145;45.544;10.214;2023-06-10T01:18:02;99661.06;;;22.35;73.41
79678;BME280;69145;45.544;10.214;2023-06-10T01:20:29;99648.13;;;22.33;73.32
79678;BME280;69145;45.544;10.214;2023-06-10T01:23:01;99655.78;;;22.35;73.32
79678;BME280;69145;45.544;10.214;2023-06-10T01:25:29;99648.94;;;22.34;73.34
79678;BME280;69145;45.544;10.214;2023-06-10T01:30:46;99647.34;;;22.33;73.40
79678;BME280;69145;45.544;10.214;2023-06-10T01:33:17;99631.28;;;22.29;73.80
79678;BME280;69145;45.544;10.214;2023-06-10T01:35:44;99644.72;;;22.33;73.65
79678;BME280;69145;45.544;10.214;2023-06-10T01:38:11;99650.53;;;22.35;74.07
79678;BME280;69145;45.544;10.214;2023-06-10T01:40:37;99634.94;;;22.33;73.86
79678;BME280;69145;45.544;10.214;2023-06-10T01:43:04;99647.88;;;22.35;73.67
79678;BME280;69145;45.544;10.214;2023-06-10T01:45:29;99636.28;;;22.31;73.84
79678;BME280;69145;45.544;10.214;2023-06-10T01:47:54;99641.81;;;22.34;74.15
79678;BME280;69145;45.544;10.214;2023-06-10T01:50:20;99646.28;;;22.34;74.23
79678;BME280;69145;45.544;10.214;2023-06-10T01:52:45;99634.69;;;22.30;73.91
79678;BME280;69145;45.544;10.214;2023-06-10T01:55:11;99630.47;;;22.34;74.14
79678;BME280;69145;45.544;10.214;2023-06-10T01:57:37;99631.28;;;22.34;74.15
79678;BME280;69145;45.544;10.214;2023-06-10T02:00:02;99630.47;;;22.34;74.02
79678;BME280;69145;45.544;10.214;2023-06-10T02:02:28;99624.66;;;22.32;74.06
79678;BME280;69145;45.544;10.214;2023-06-10T02:04:53;99632.06;;;22.35;74.19
79678;BME280;69145;45.544;10.214;2023-06-10T02:07:19;99622.84;;;22.32;74.14
79678;BME280;69145;45.544;10.214;2023-06-10T02:09:44;99624.41;;;22.33;74.60
79678;BME280;69145;45.544;10.214;2023-06-10T02:12:10;99630.47;;;22.34;74.75
79678;BME280;69145;45.544;10.214;2023-06-10T02:14:35;99625.75;;;22.31;74.28
79678;BME280;69145;45.544;10.214;2023-06-10T02:17:01;99630.47;;;22.34;74.05
79678;BME280;69145;45.544;10.214;2023-06-10T02:19:26;99630.47;;;22.34;74.44
79678;BME280;69145;45.544;10.214;2023-06-10T02:21:52;99629.69;;;22.33;74.30
79678;BME280;69145;45.544;10.214;2023-06-10T02:24:18;99633.91;;;22.34;74.08
79678;BME280;69145;45.544;10.214;2023-06-10T02:26:44;99625.19;;;22.34;74.02
79678;BME280;69145;45.544;10.214;2023-06-10T02:29:10;99630.47;;;22.34;73.98
79678;BME280;69145;45.544;10.214;2023-06-10T02:31:36;99627.84;;;22.34;74.23
79678;BME280;69145;45.544;10.214;2023-06-10T02:34:02;99631.00;;;22.31;74.42
79678;BME280;69145;45.544;10.214;2023-06-10T02:36:29;99621.50;;;22.30;74.38
79678;BME280;69145;45.544;10.214;2023-06-10T02:38:54;99622.03;;;22.32;74.33
79678;BME280;69145;45.544;10.214;2023-06-10T02:41:19;99624.13;;;22.30;74.15
79678;BME280;69145;45.544;10.214;2023-06-10T02:43:47;99637.34;;;22.35;74.12
79678;BME280;69145;45.544;10.214;2023-06-10T02:46:12;99634.94;;;22.33;74.11
79678;BME280;69145;45.544;10.214;2023-06-10T02:48:45;99629.69;;;22.33;74.26
79678;BME280;69145;45.544;10.214;2023-06-10T02:51:11;99641.03;;;22.34;74.25
79678;BME280;69145;45.544;10.214;2023-06-10T02:53:36;99630.75;;;22.32;74.20
79678;BME280;69145;45.544;10.214;2023-06-10T02:56:02;99626.53;;;22.31;74.11
79678;BME280;69145;45.544;10.214;2023-06-10T02:58:27;99634.94;;;22.33;73.98
79678;BME280;69145;45.544;10.214;2023-06-10T03:00:53;99642.09;;;22.33;74.00
79678;BME280;69145;45.544;10.214;2023-06-10T03:03:18;99642.34;;;22.31;73.94
79678;BME280;69145;45.544;10.214;2023-06-10T03:05:43;99647.88;;;22.35;73.91
79678;BME280;69145;45.544;10.214;2023-06-10T03:08:09;99647.88;;;22.35;73.82
79678;BME280;69145;45.544;10.214;2023-06-10T03:10:34;99651.03;;;22.32;73.73
79678;BME280;69145;45.544;10.214;2023-06-10T03:13:00;99653.16;;;22.35;74.10
79678;BME280;69145;45.544;10.214;2023-06-10T03:15:25;99640.22;;;22.33;73.91
79678;BME280;69145;45.544;10.214;2023-06-10T03:17:50;99645.25;;;22.35;73.91
79678;BME280;69145;45.544;10.214;2023-06-10T03:20:16;99647.09;;;22.34;73.75
79678;BME280;69145;45.544;10.214;2023-06-10T03:22:42;99632.56;;;22.32;73.92
79678;BME280;69145;45.544;10.214;2023-06-10T03:25:08;99643.66;;;22.34;73.85
79678;BME280;69145;45.544;10.214;2023-06-10T03:27:39;99646.28;;;22.34;73.93
79678;BME280;69145;45.544;10.214;2023-06-10T03:30:05;99651.56;;;22.34;73.90
79678;BME280;69145;45.544;10.214;2023-06-10T03:32:30;99636.53;;;22.34;73.73
79678;BME280;69145;45.544;10.214;2023-06-10T03:34:55;99638.13;;;22.30;73.75
79678;BME280;69145;45.544;10.214;2023-06-10T03:37:22;99641.56;;;22.31;73.78
79678;BME280;69145;45.544;10.214;2023-06-10T03:39:47;99633.66;;;22.31;73.71
79678;BME280;69145;45.544;10.214;2023-06-10T03:42:13;99643.66;;;22.34;73.68
79678;BME280;69145;45.544;10.214;2023-06-10T03:44:38;99646.28;;;22.34;73.77
79678;BME280;69145;45.544;10.214;2023-06-10T03:47:04;99645.25;;;22.35;73.72
79678;BME280;69145;45.544;10.214;2023-06-10T03:49:29;99634.19;;;22.33;73.64
79678;BME280;69145;45.544;10.214;2023-06-10T03:51:55;99638.38;;;22.34;73.83
79678;BME280;69145;45.544;10.214;2023-06-10T03:54:21;99638.38;;;22.34;73.69
79678;BME280;69145;45.544;10.214;2023-06-10T03:56:46;99645.25;;;22.35;73.77
79678;BME280;69145;45.544;10.214;2023-06-10T03:59:13;99639.44;;;22.33;73.67
79678;BME280;69145;45.544;10.214;2023-06-10T04:01:38;99648.13;;;22.33;73.69
79678;BME280;69145;45.544;10.214;2023-06-10T04:04:06;99652.09;;;22.31;73.77
79678;BME280;69145;45.544;10.214;2023-06-10T04:06:31;99660.28;;;22.34;73.74
79678;BME280;69145;45.544;10.214;2023-06-10T04:08:56;99657.63;;;22.34;73.83
79678;BME280;69145;45.544;10.214;2023-06-10T04:11:23;99656.31;;;22.32;73.98
79678;BME280;69145;45.544;10.214;2023-06-10T04:13:49;99653.66;;;22.32;74.06
79678;BME280;69145;45.544;10.214;2023-06-10T04:16:15;99654.19;;;22.34;73.86
79678;BME280;69145;45.544;10.214;2023-06-10T04:18:41;99658.44;;;22.35;74.30
79678;BME280;69145;45.544;10.214;2023-06-10T04:21:07;99657.63;;;22.34;74.33
79678;BME280;69145;45.544;10.214;2023-06-10T04:23:32;99662.09;;;22.34;74.61
79678;BME280;69145;45.544;10.214;2023-06-10T04:25:57;99654.72;;;22.31;74.50
79678;BME280;69145;45.544;10.214;2023-06-10T04:28:24;99668.19;;;22.34;74.52
79678;BME280;69145;45.544;10.214;2023-06-10T04:30:50;99655.25;;;22.33;74.11
79678;BME280;69145;45.544;10.214;2023-06-10T04:33:15;99653.94;;;22.30;74.70
79678;BME280;69145;45.544;10.214;2023-06-10T04:35:41;99648.41;;;22.32;74.57
79678;BME280;69145;45.544;10.214;2023-06-10T04:38:07;99648.94;;;22.34;74.59
79678;BME280;69145;45.544;10.214;2023-06-10T04:40:32;99647.63;;;22.31;74.97
79678;BME280;69145;45.544;10.214;2023-06-10T04:42:58;99653.41;;;22.33;74.68
79678;BME280;69145;45.544;10.214;2023-06-10T04:45:23;99648.94;;;22.29;74.65
79678;BME280;69145;45.544;10.214;2023-06-10T04:47:48;99653.66;;;22.32;74.57
79678;BME280;69145;45.544;10.214;2023-06-10T04:50:14;99647.09;;;22.34;74.59
79678;BME280;69145;45.544;10.214;2023-06-10T04:52:41;99645.75;;;22.32;74.27
79678;BME280;69145;45.544;10.214;2023-06-10T04:55:11;99653.13;;;22.30;74.30
79678;BME280;69145;45.544;10.214;2023-06-10T04:57:37;99651.31;;;22.30;74.48
79678;BME280;69145;45.544;10.214;2023-06-10T05:00:03;99644.47;;;22.29;74.52
79678;BME280;69145;45.544;10.214;2023-06-10T05:02:31;99648.13;;;22.33;74.45
79678;BME280;69145;45.544;10.214;2023-06-10T05:04:56;99650.75;;;22.33;74.45
79678;BME280;69145;45.544;10.214;2023-06-10T05:07:23;99636.78;;;22.23;74.21
79678;BME280;69145;45.544;10.214;2023-06-10T05:09:48;99643.41;;;22.25;74.34
79678;BME280;69145;45.544;10.214;2023-06-10T05:12:13;99657.63;;;22.34;74.29
79678;BME280;69145;45.544;10.214;2023-06-10T05:14:39;99656.03;;;22.33;74.67
79678;BME280;69145;45.544;10.214;2023-06-10T05:17:07;99653.94;;;22.30;74.29
79678;BME280;69145;45.544;10.214;2023-06-10T05:19:32;99657.38;;;22.31;74.20
79678;BME280;69145;45.544;10.214;2023-06-10T05:21:58;99653.41;;;22.28;74.02
79678;BME280;69145;45.544;10.214;2023-06-10T05:24:23;99649.72;;;22.29;74.15
79678;BME280;69145;45.544;10.214;2023-06-10T05:26:49;99647.63;;;22.31;73.99
79678;BME280;69145;45.544;10.214;2023-06-10T05:29:14;99642.59;;;22.30;74.02
79678;BME280;69145;45.544;10.214;2023-06-10T05:31:43;99655.25;;;22.33;74.01
79678;BME280;69145;45.544;10.214;2023-06-10T05:34:08;99655.25;;;22.33;73.80
79678;BME280;69145;45.544;10.214;2023-06-10T05:36:34;99663.19;;;22.33;73.73
79678;BME280;69145;45.544;10.214;2023-06-10T05:38:59;99657.38;;;22.31;73.70
79678;BME280;69145;45.544;10.214;2023-06-10T05:41:24;99651.56;;;22.29;73.92
79678;BME280;69145;45.544;10.214;2023-06-10T05:43:50;99657.91;;;22.33;73.71
79678;BME280;69145;45.544;10.214;2023-06-10T05:46:16;99641.03;;;22.29;73.72
79678;BME280;69145;45.544;10.214;2023-06-10T05:48:41;99655.25;;;22.33;73.89
79678;BME280;69145;45.544;10.214;2023-06-10T05:51:06;99655.53;;;22.31;73.43
79678;BME280;69145;45.544;10.214;2023-06-10T05:53:32;99658.94;;;22.32;73.48
79678;BME280;69145;45.544;10.214;2023-06-10T05:55:57;99654.72;;;22.31;73.74
79678;BME280;69145;45.544;10.214;2023-06-10T05:58:23;99663.19;;;22.33;73.51
79678;BME280;69145;45.544;10.214;2023-06-10T06:00:49;99655.78;;;22.30;73.65
79678;BME280;69145;45.544;10.214;2023-06-10T06:03:17;99668.19;;;22.34;73.57
79678;BME280;69145;45.544;10.214;2023-06-10T06:05:45;99667.66;;;22.32;73.67
79678;BME280;69145;45.544;10.214;2023-06-10T06:08:14;99660.00;;;22.31;73.32
79678;BME280;69145;45.544;10.214;2023-06-10T06:10:44;99673.44;;;22.34;73.63
79678;BME280;69145;45.544;10.214;2023-06-10T06:13:10;99673.44;;;22.34;73.38
79678;BME280;69145;45.544;10.214;2023-06-10T06:15:35;99663.44;;;22.31;73.44
79678;BME280;69145;45.544;10.214;2023-06-10T06:18:00;99662.38;;;22.27;73.63
79678;BME280;69145;45.544;10.214;2023-06-10T06:20:26;99666.84;;;22.32;73.37
79678;BME280;69145;45.544;10.214;2023-06-10T06:22:51;99676.63;;;22.31;73.60
79678;BME280;69145;45.544;10.214;2023-06-10T06:25:16;99671.09;;;22.33;73.52
79678;BME280;69145;45.544;10.214;2023-06-10T06:27:42;99674.25;;;22.35;73.66
79678;BME280;69145;45.544;10.214;2023-06-10T06:30:08;99683.19;;;22.34;73.48
79678;BME280;69145;45.544;10.214;2023-06-10T06:32:33;99677.38;;;22.32;73.65
79678;BME280;69145;45.544;10.214;2023-06-10T06:34:59;99675.56;;;22.32;73.15
79678;BME280;69145;45.544;10.214;2023-06-10T06:37:25;99677.66;;;22.35;73.18
79678;BME280;69145;45.544;10.214;2023-06-10T06:39:51;99677.91;;;22.34;72.96
79678;BME280;69145;45.544;10.214;2023-06-10T06:42:17;99672.66;;;22.34;73.35
79678;BME280;69145;45.544;10.214;2023-06-10T06:44:43;99675.81;;;22.36;73.07
79678;BME280;69145;45.544;10.214;2023-06-10T06:47:09;99673.44;;;22.34;73.01
79678;BME280;69145;45.544;10.214;2023-06-10T06:49:34;99678.72;;;22.34;73.04
79678;BME280;69145;45.544;10.214;2023-06-10T06:52:00;99670.00;;;22.34;73.01
79678;BME280;69145;45.544;10.214;2023-06-10T06:54:25;99671.84;;;22.33;72.98
79678;BME280;69145;45.544;10.214;2023-06-10T06:56:50;99667.66;;;22.32;73.02
79678;BME280;69145;45.544;10.214;2023-06-10T06:59:16;99679.53;;;22.35;72.98
79678;BME280;69145;45.544;10.214;2023-06-10T07:01:47;99668.19;;;22.29;72.98
79678;BME280;69145;45.544;10.214;2023-06-10T07:04:14;99662.13;;;22.24;72.89
79678;BME280;69145;45.544;10.214;2023-06-10T07:06:40;99679.75;;;22.33;72.92
79678;BME280;69145;45.544;10.214;2023-06-10T07:09:07;99669.75;;;22.30;73.02
79678;BME280;69145;45.544;10.214;2023-06-10T07:11:32;99678.72;;;22.34;72.86
79678;BME280;69145;45.544;10.214;2023-06-10T07:13:58;99680.28;;;22.35;72.78
79678;BME280;69145;45.544;10.214;2023-06-10T07:16:23;99684.78;;;22.35;72.78
79678;BME280;69145;45.544;10.214;2023-06-10T07:18:48;99683.19;;;22.34;72.96
79678;BME280;69145;45.544;10.214;2023-06-10T07:21:14;99679.75;;;22.33;72.85
79678;BME280;69145;45.544;10.214;2023-06-10T07:23:43;99685.28;;;22.32;73.10
79678;BME280;69145;45.544;10.214;2023-06-10T07:26:08;99686.34;;;22.36;73.10
79678;BME280;69145;45.544;10.214;2023-06-10T07:28:36;99681.63;;;22.33;72.92
79678;BME280;69145;45.544;10.214;2023-06-10T07:31:02;99686.34;;;22.36;72.93
79678;BME280;69145;45.544;10.214;2023-06-10T07:33:28;99682.41;;;22.33;73.06
79678;BME280;69145;45.544;10.214;2023-06-10T07:35:53;99687.16;;;22.36;73.09
79678;BME280;69145;45.544;10.214;2023-06-10T07:38:19;99679.25;;;22.36;73.06
79678;BME280;69145;45.544;10.214;2023-06-10T07:40:44;99643.63;;;22.14;73.03
79678;BME280;69145;45.544;10.214;2023-06-10T07:43:10;99673.44;;;22.34;73.22
79678;BME280;69145;45.544;10.214;2023-06-10T07:45:35;99668.72;;;22.31;73.13
79678;BME280;69145;45.544;10.214;2023-06-10T07:48:01;99672.38;;;22.35;73.10
79678;BME280;69145;45.544;10.214;2023-06-10T07:50:26;99675.81;;;22.36;73.14
79678;BME280;69145;45.544;10.214;2023-06-10T07:52:51;99669.47;;;22.37;73.24
79678;BME280;69145;45.544;10.214;2023-06-10T07:55:17;99667.91;;;22.36;73.17
79678;BME280;69145;45.544;10.214;2023-06-10T07:57:42;99660.00;;;22.31;73.14
79678;BME280;69145;45.544;10.214;2023-06-10T08:00:29;99661.34;;;22.38;73.25
79678;BME280;69145;45.544;10.214;2023-06-10T08:02:54;99661.06;;;22.35;73.25
79678;BME280;69145;45.544;10.214;2023-06-10T08:05:21;99662.09;;;22.34;73.23
79678;BME280;69145;45.544;10.214;2023-06-10T08:07:47;99663.16;;;22.38;73.28
79678;BME280;69145;45.544;10.214;2023-06-10T08:10:12;99669.25;;;22.38;73.23
79678;BME280;69145;45.544;10.214;2023-06-10T08:12:37;99657.91;;;22.38;73.41
79678;BME280;69145;45.544;10.214;2023-06-10T08:15:03;99654.47;;;22.32;73.28
79678;BME280;69145;45.544;10.214;2023-06-10T08:17:30;99658.44;;;22.35;73.53
79678;BME280;69145;45.544;10.214;2023-06-10T08:19:56;99662.38;;;22.37;73.23
79678;BME280;69145;45.544;10.214;2023-06-10T08:22:21;99662.38;;;22.37;73.24
79678;BME280;69145;45.544;10.214;2023-06-10T08:24:47;99664.22;;;22.32;73.30
79678;BME280;69145;45.544;10.214;2023-06-10T08:27:12;99656.84;;;22.34;73.26
79678;BME280;69145;45.544;10.214;2023-06-10T08:29:37;99664.22;;;22.37;73.61
79678;BME280;69145;45.544;10.214;2023-06-10T08:32:03;99663.16;;;22.38;73.38
79678;BME280;69145;45.544;10.214;2023-06-10T08:34:29;99660.28;;;22.34;73.31
79678;BME280;69145;45.544;10.214;2023-06-10T08:36:54;99653.13;;;22.30;73.03
79678;BME280;69145;45.544;10.214;2023-06-10T08:39:21;99665.81;;;22.33;73.38
79678;BME280;69145;45.544;10.214;2023-06-10T08:42:32;99663.97;;;22.38;73.31
79678;BME280;69145;45.544;10.214;2023-06-10T08:45:00;99670.28;;;22.37;73.39
79678;BME280;69145;45.544;10.214;2023-06-10T08:47:29;99663.94;;;22.33;73.49
79678;BME280;69145;45.544;10.214;2023-06-10T08:49:56;99668.44;;;22.38;73.31
79678;BME280;69145;45.544;10.214;2023-06-10T08:52:29;99670.00;;;22.39;73.34
79678;BME280;69145;45.544;10.214;2023-06-10T08:55:15;99651.84;;;22.32;73.36
79678;BME280;69145;45.544;10.214;2023-06-10T08:57:45;99657.63;;;22.34;73.43
79678;BME280;69145;45.544;10.214;2023-06-10T09:00:14;99653.66;;;22.32;73.33
79678;BME280;69145;45.544;10.214;2023-06-10T09:02:40;99672.66;;;22.39;73.50
79678;BME280;69145;45.544;10.214;2023-06-10T09:05:07;99662.38;;;22.32;73.49
79678;BME280;69145;45.544;10.214;2023-06-10T09:07:33;99657.09;;;22.32;73.43
79678;BME280;69145;45.544;10.214;2023-06-10T09:10:01;99661.56;;;22.32;73.39
79678;BME280;69145;45.544;10.214;2023-06-10T09:12:31;99671.59;;;22.40;73.38
79678;BME280;69145;45.544;10.214;2023-06-10T09:14:57;99672.13;;;22.37;73.37
79678;BME280;69145;45.544;10.214;2023-06-10T09:17:22;99670.81;;;22.39;73.29
79678;BME280;69145;45.544;10.214;2023-06-10T09:19:48;99657.09;;;22.32;73.25
79678;BME280;69145;45.544;10.214;2023-06-10T09:22:14;99647.34;;;22.28;73.08
79678;BME280;69145;45.544;10.214;2023-06-10T09:24:41;99645.50;;;22.23;73.42
79678;BME280;69145;45.544;10.214;2023-06-10T09:27:08;99672.66;;;22.39;73.20
79678;BME280;69145;45.544;10.214;2023-06-10T09:29:54;99646.84;;;22.26;73.43
79678;BME280;69145;45.544;10.214;2023-06-10T09:32:20;99658.94;;;22.37;73.56
79678;BME280;69145;45.544;10.214;2023-06-10T09:34:47;99641.28;;;22.27;73.43
79678;BME280;69145;45.544;10.214;2023-06-10T09:37:12;99642.88;;;22.23;73.27
79678;BME280;69145;45.544;10.214;2023-06-10T09:39:39;99654.72;;;22.36;73.16
79678;BME280;69145;45.544;10.214;2023-06-10T09:42:16;99645.50;;;22.33;73.29
79678;BME280;69145;45.544;10.214;2023-06-10T09:44:42;99629.69;;;22.23;73.17
79678;BME280;69145;45.544;10.214;2023-06-10T09:47:22;99630.47;;;22.29;73.33
79678;BME280;69145;45.544;10.214;2023-06-10T09:49:51;99632.59;;;22.27;73.13
79678;BME280;69145;45.544;10.214;2023-06-10T09:52:23;99649.19;;;22.37;73.24
79678;BME280;69145;45.544;10.214;2023-06-10T09:54:53;99653.16;;;22.40;73.22
79678;BME280;69145;45.544;10.214;2023-06-10T09:57:20;99644.97;;;22.41;73.32
79678;BME280;69145;45.544;10.214;2023-06-10T09:59:46;99659.19;;;22.40;73.15
79678;BME280;69145;45.544;10.214;2023-06-10T10:02:15;99660.78;;;22.41;73.22
79678;BME280;69145;45.544;10.214;2023-06-10T10:04:41;99647.09;;;22.39;73.08
79678;BME280;69145;45.544;10.214;2023-06-10T10:07:10;99657.34;;;22.41;73.08
79678;BME280;69145;45.544;10.214;2023-06-10T10:09:40;99652.63;;;22.38;72.96
79678;BME280;69145;45.544;10.214;2023-06-10T10:12:11;99657.34;;;22.41;73.09
79678;BME280;69145;45.544;10.214;2023-06-10T10:14:37;99647.09;;;22.34;72.86
79678;BME280;69145;45.544;10.214;2023-06-10T10:17:09;99652.88;;;22.41;73.06
79678;BME280;69145;45.544;10.214;2023-06-10T10:19:48;99647.63;;;22.41;72.94
79678;BME280;69145;45.544;10.214;2023-06-10T10:22:24;99649.44;;;22.41;73.13
79678;BME280;69145;45.544;10.214;2023-06-10T10:24:52;99650.53;;;22.40;73.05
79678;BME280;69145;45.544;10.214;2023-06-10T10:27:24;99646.28;;;22.39;73.10
79678;BME280;69145;45.544;10.214;2023-06-10T10:29:54;99648.91;;;22.39;72.92
79678;BME280;69145;45.544;10.214;2023-06-10T10:32:31;99637.88;;;22.42;72.85
79678;BME280;69145;45.544;10.214;2023-06-10T10:35:08;99623.38;;;22.34;72.73
79678;BME280;69145;45.544;10.214;2023-06-10T10:37:35;99634.69;;;22.40;72.86
79678;BME280;69145;45.544;10.214;2023-06-10T10:40:01;99631.78;;;22.41;72.89
79678;BME280;69145;45.544;10.214;2023-06-10T10:42:28;99615.44;;;22.39;72.92
79678;BME280;69145;45.544;10.214;2023-06-10T10:44:55;99625.47;;;22.37;72.92
79678;BME280;69145;45.544;10.214;2023-06-10T10:47:21;99627.31;;;22.37;73.00
79678;BME280;69145;45.544;10.214;2023-06-10T10:49:50;99627.06;;;22.38;72.75
79678;BME280;69145;45.544;10.214;2023-06-10T10:52:17;99619.94;;;22.39;72.96
79678;BME280;69145;45.544;10.214;2023-06-10T10:54:46;99616.25;;;22.40;72.92
79678;BME280;69145;45.544;10.214;2023-06-10T10:57:20;99612.28;;;22.37;72.82
79678;BME280;69145;45.544;10.214;2023-06-10T10:59:54;99616.78;;;22.42;72.90
79678;BME280;69145;45.544;10.214;2023-06-10T11:05:04;99611.50;;;22.42;72.90
79678;BME280;69145;45.544;10.214;2023-06-10T11:07:31;99608.84;;;22.37;72.95
79678;BME280;69145;45.544;10.214;2023-06-10T11:10:13;99612.53;;;22.41;72.71
79678;BME280;69145;45.544;10.214;2023-06-10T11:15:13;99608.88;;;22.42;72.89
79678;BME280;69145;45.544;10.214;2023-06-10T11:18:08;99612.00;;;22.44;72.96
79678;BME280;69145;45.544;10.214;2023-06-10T11:31:21;99609.38;;;22.44;72.69
79678;BME280;69145;45.544;10.214;2023-06-10T11:33:48;99604.63;;;22.41;72.76
79678;BME280;69145;45.544;10.214;2023-06-10T11:36:14;99608.59;;;22.43;72.80
79678;BME280;69145;45.544;10.214;2023-06-10T11:38:40;99612.00;;;22.44;72.68
79678;BME280;69145;45.544;10.214;2023-06-10T11:41:07;99603.06;;;22.45;72.78
79678;BME280;69145;45.544;10.214;2023-06-10T11:43:33;99603.84;;;22.40;72.72
79678;BME280;69145;45.544;10.214;2023-06-10T11:45:59;99589.38;;;22.33;72.78
79678;BME280;69145;45.544;10.214;2023-06-10T11:48:25;99599.38;;;22.41;72.93
79678;BME280;69145;45.544;10.214;2023-06-10T11:50:53;99599.38;;;22.41;72.85
79678;BME280;69145;45.544;10.214;2023-06-10T11:53:19;99603.56;;;22.37;72.93
79678;BME280;69145;45.544;10.214;2023-06-10T11:55:46;99602.00;;;22.41;72.66
79678;BME280;69145;45.544;10.214;2023-06-10T11:58:21;99597.78;;;22.40;72.95
79678;BME280;69145;45.544;10.214;2023-06-10T12:00:49;99596.72;;;22.46;72.81
79678;BME280;69145;45.544;10.214;2023-06-10T12:03:15;99591.19;;;22.42;72.92
79678;BME280;69145;45.544;10.214;2023-06-10T12:06:01;99591.44;;;22.46;72.83
79678;BME280;69145;45.544;10.214;2023-06-10T12:08:28;99580.38;;;22.44;72.97
79678;BME280;69145;45.544;10.214;2023-06-10T12:10:53;99574.06;;;22.45;72.94
79678;BME280;69145;45.544;10.214;2023-06-10T12:13:19;99567.19;;;22.39;73.13
79678;BME280;69145;45.544;10.214;2023-06-10T12:15:48;99573.00;;;22.46;73.04
79678;BME280;69145;45.544;10.214;2023-06-10T12:18:20;99570.34;;;22.46;72.99
79678;BME280;69145;45.544;10.214;2023-06-10T12:20:49;99566.69;;;22.47;72.66
79678;BME280;69145;45.544;10.214;2023-06-10T12:23:16;99562.16;;;22.47;73.07
79678;BME280;69145;45.544;10.214;2023-06-10T12:25:52;99569.31;;;22.47;72.88
79678;BME280;69145;45.544;10.214;2023-06-10T12:28:25;99572.72;;;22.47;73.01
79678;BME280;69145;45.544;10.214;2023-06-10T12:30:51;99557.97;;;22.46;73.06
79678;BME280;69145;45.544;10.214;2023-06-10T12:33:18;99566.69;;;22.47;72.75
79678;BME280;69145;45.544;10.214;2023-06-10T12:36:02;99581.44;;;22.48;72.97
79678;BME280;69145;45.544;10.214;2023-06-10T12:38:27;99564.81;;;22.42;73.06
79678;BME280;69145;45.544;10.214;2023-06-10T12:40:53;99572.72;;;22.47;72.94
79678;BME280;69145;45.544;10.214;2023-06-10T12:43:23;99566.16;;;22.45;73.23
79678;BME280;69145;45.544;10.214;2023-06-10T12:45:51;99573.50;;;22.48;73.05
79678;BME280;69145;45.544;10.214;2023-06-10T12:48:24;99572.72;;;22.47;73.05
79678;BME280;69145;45.544;10.214;2023-06-10T12:50:58;99565.34;;;22.44;72.93
79678;BME280;69145;45.544;10.214;2023-06-10T12:53:25;99557.16;;;22.46;72.96
79678;BME280;69145;45.544;10.214;2023-06-10T12:55:54;99549.78;;;22.48;73.00
79678;BME280;69145;45.544;10.214;2023-06-10T12:58:20;99544.50;;;22.48;72.97
79678;BME280;69145;45.544;10.214;2023-06-10T13:00:47;99552.97;;;22.45;72.74
79678;BME280;69145;45.544;10.214;2023-06-10T13:03:13;99543.47;;;22.49;72.94
79678;BME280;69145;45.544;10.214;2023-06-10T13:05:39;99549.78;;;22.48;73.11
79678;BME280;69145;45.544;10.214;2023-06-10T13:08:08;99532.41;;;22.47;73.09
79678;BME280;69145;45.544;10.214;2023-06-10T13:10:37;99533.69;;;22.49;72.83